createdAt,value
2019-05-12T00:01:33.991Z,96988.08
2019-05-12T00:04:05.402Z,96992.33
2019-05-12T00:06:38.724Z,96994.52
2019-05-12T00:09:09.901Z,96997.52
2019-05-12T00:11:41.145Z,97001.38
2019-05-12T00:14:40.169Z,96995.39
2019-05-12T00:17:11.480Z,97008.16
2019-05-12T00:19:43.084Z,97012.48
2019-05-12T00:22:18.107Z,97003.84
2019-05-12T00:24:49.436Z,97009.86
2019-05-12T00:27:22.255Z,97006.49
2019-05-12T00:29:54.049Z,96993.55
2019-05-12T00:32:28.096Z,97001.19
2019-05-12T00:34:58.696Z,97006.37
2019-05-12T00:37:30.453Z,96999.78
2019-05-12T00:40:01.961Z,97003.60
2019-05-12T00:42:33.219Z,97020.66
2019-05-12T00:45:05.086Z,97021.44
2019-05-12T00:47:38.637Z,97029.56
2019-05-12T00:50:09.517Z,97043.66
2019-05-12T00:52:40.666Z,97044.48
2019-05-12T00:55:13.150Z,97041.09
2019-05-12T00:57:44.385Z,97046.66
2019-05-12T01:00:18.021Z,97054.47
2019-05-12T01:02:49.462Z,97060.87
2019-05-12T01:05:20.890Z,97067.72
2019-05-12T01:07:52.191Z,97074.50
2019-05-12T01:10:23.474Z,97086.86
2019-05-12T01:12:54.728Z,97092.47
2019-05-12T01:15:28.828Z,97096.37
2019-05-12T01:17:59.626Z,97099.30
2019-05-12T01:20:31.041Z,97103.58
2019-05-12T01:23:02.403Z,97100.13
2019-05-12T01:25:33.764Z,97106.02
2019-05-12T01:28:05.056Z,97108.48
2019-05-12T01:30:38.686Z,97110.71
2019-05-12T01:33:09.365Z,97112.98
2019-05-12T01:35:40.935Z,97121.88
2019-05-12T01:38:12.178Z,97126.42
2019-05-12T01:40:43.517Z,97129.01
2019-05-12T01:43:14.755Z,97135.36
2019-05-12T01:45:48.286Z,97141.73
2019-05-12T01:48:19.503Z,97144.38
2019-05-12T01:50:51.009Z,97152.08
2019-05-12T01:53:22.255Z,97163.41
2019-05-12T01:55:54.697Z,97168.63
2019-05-12T01:58:27.781Z,97168.02
2019-05-12T02:00:59.024Z,97178.09
2019-05-12T02:03:30.558Z,97182.88
2019-05-12T02:06:02.566Z,97190.62
2019-05-12T02:08:40.087Z,97194.52
2019-05-12T02:11:29.110Z,97198.64
2019-05-12T02:14:01.146Z,97193.53
2019-05-12T02:16:33.118Z,97206.75
2019-05-12T02:19:04.517Z,97204.12
2019-05-12T02:21:38.046Z,97218.66
2019-05-12T02:24:23.027Z,97209.99
2019-05-12T02:26:42.036Z,97221.55
2019-05-12T02:29:13.332Z,97225.33
2019-05-12T02:31:45.096Z,97236.96
2019-05-12T02:34:16.354Z,97242.18
2019-05-12T02:36:47.801Z,97242.43
2019-05-12T02:39:19.154Z,97251.40
2019-05-12T02:41:50.596Z,97245.08
2019-05-12T02:44:24.795Z,97248.74
2019-05-12T02:46:56.411Z,97254.22
2019-05-12T02:49:28.057Z,97254.31
2019-05-12T02:52:00.134Z,97257.71
2019-05-12T02:54:50.734Z,97264.55
2019-05-12T02:57:06.208Z,97275.30
2019-05-12T02:59:44.772Z,97280.55
2019-05-12T03:02:16.901Z,97283.34
2019-05-12T03:04:51.155Z,97291.05
2019-05-12T03:07:25.676Z,97298.34
2019-05-12T03:09:58.839Z,97296.74
2019-05-12T03:12:30.193Z,97299.95
2019-05-12T03:15:01.546Z,97300.13
2019-05-12T03:17:35.524Z,97307.66
2019-05-12T03:20:07.603Z,97304.27
2019-05-12T03:22:39.070Z,97300.62
2019-05-12T03:25:20.634Z,97304.58
2019-05-12T03:27:44.578Z,97331.05
2019-05-12T03:30:19.332Z,97337.14
2019-05-12T03:32:50.375Z,97346.45
2019-05-12T03:35:32.809Z,97340.92
2019-05-12T03:37:55.096Z,97351.43
2019-05-12T03:40:26.444Z,97354.44
2019-05-12T03:42:58.148Z,97371.03
2019-05-12T03:45:29.354Z,97364.05
2019-05-12T03:48:04.032Z,97374.62
2019-05-12T03:50:35.394Z,97377.67
2019-05-12T03:53:10.804Z,97387.25
2019-05-12T03:55:43.250Z,97382.20
2019-05-12T03:58:15.312Z,97397.06
2019-05-12T04:00:46.647Z,97399.06
2019-05-12T04:03:18.038Z,97402.70
2019-05-12T04:05:49.422Z,97403.14
2019-05-12T04:08:20.812Z,97411.47
2019-05-12T04:10:54.764Z,97416.27
2019-05-12T04:13:26.482Z,97418.19
2019-05-12T04:15:58.372Z,97420.56
2019-05-12T04:18:30.006Z,97429.16
2019-05-12T04:21:05.215Z,97421.81
2019-05-12T04:23:35.099Z,97437.34
2019-05-12T04:26:11.819Z,97441.44
2019-05-12T04:28:39.479Z,97441.28
2019-05-12T04:31:10.852Z,97443.88
2019-05-12T04:33:45.219Z,97448.00
2019-05-12T04:36:15.971Z,97445.28
2019-05-12T04:38:47.316Z,97459.83
2019-05-12T04:41:20.009Z,97455.46
2019-05-12T04:43:54.909Z,97477.49
2019-05-12T04:46:25.385Z,97471.45
2019-05-12T04:48:56.983Z,97490.25
2019-05-12T04:51:28.398Z,97496.82
2019-05-12T04:53:59.602Z,97498.26
2019-05-12T04:56:30.968Z,97511.20
2019-05-12T04:59:05.073Z,97520.28
2019-05-12T05:01:35.669Z,97527.81
2019-05-12T05:04:07.013Z,97528.34
2019-05-12T05:06:38.358Z,97532.70
2019-05-12T05:09:10.814Z,97529.81
2019-05-12T05:11:44.786Z,97539.27
2019-05-12T05:14:15.086Z,97545.58
2019-05-12T05:16:46.361Z,97560.64
2019-05-12T05:19:18.096Z,97559.24
2019-05-12T05:21:49.438Z,97563.49
2019-05-12T05:24:20.787Z,97563.25
2019-05-12T05:26:53.936Z,97569.13
2019-05-12T05:29:25.119Z,97584.77
2019-05-12T05:31:56.368Z,97585.95
2019-05-12T05:34:27.717Z,97593.34
2019-05-12T05:37:01.495Z,97585.45
2019-05-12T05:39:35.679Z,97597.38
2019-05-12T05:42:05.544Z,97600.95
2019-05-12T05:44:38.098Z,97605.70
2019-05-12T05:47:09.591Z,97609.88
2019-05-12T05:49:40.849Z,97610.52
2019-05-12T05:52:13.720Z,97615.41
2019-05-12T05:54:45.463Z,97615.58
2019-05-12T05:57:19.943Z,97624.83
2019-05-12T05:59:50.051Z,97630.22
2019-05-12T06:02:23.198Z,97640.48
2019-05-12T06:04:56.433Z,97637.50
2019-05-12T06:07:35.031Z,97641.81
2019-05-12T06:10:00.351Z,97639.13
2019-05-12T06:12:33.438Z,97646.85
2019-05-12T06:15:08.538Z,97653.49
2019-05-12T06:17:38.228Z,97649.66
2019-05-12T06:20:10.067Z,97663.13
2019-05-12T06:22:43.618Z,97659.92
2019-05-12T06:25:16.057Z,97662.62
2019-05-12T06:27:51.054Z,97659.04
2019-05-12T06:30:21.297Z,97661.06
2019-05-12T06:32:54.661Z,97671.73
2019-05-12T06:35:26.102Z,97672.64
2019-05-12T06:38:01.559Z,97674.84
2019-05-12T06:40:30.719Z,97676.11
2019-05-12T06:43:04.404Z,97683.34
2019-05-12T06:45:41.804Z,97678.33
2019-05-12T06:48:09.166Z,97688.44
2019-05-12T06:50:40.772Z,97694.50
2019-05-12T06:53:13.912Z,97706.37
2019-05-12T06:55:45.837Z,97707.66
2019-05-12T06:58:25.950Z,97705.88
2019-05-12T07:00:50.212Z,97711.14
2019-05-12T07:03:26.141Z,97717.02
2019-05-12T07:05:54.614Z,97716.59
2019-05-12T07:08:31.374Z,97718.97
2019-05-12T07:11:01.818Z,97720.39
2019-05-12T07:13:34.104Z,97723.45
2019-05-12T07:16:22.027Z,97727.34
2019-05-12T07:18:49.176Z,97727.34
2019-05-12T07:21:24.196Z,97736.52
2019-05-12T07:23:53.696Z,97733.95
2019-05-12T07:26:24.952Z,97736.95
2019-05-12T07:28:56.526Z,97744.87
2019-05-12T07:31:27.854Z,97755.16
2019-05-12T07:33:59.750Z,97750.16
2019-05-12T07:36:33.345Z,97751.48
2019-05-12T07:39:08.766Z,97755.59
2019-05-12T07:41:50.763Z,97763.00
2019-05-12T07:44:18.289Z,97766.49
2019-05-12T07:46:49.701Z,97768.63
2019-05-12T07:49:22.009Z,97763.41
2019-05-12T07:51:58.204Z,97765.17
2019-05-12T07:54:34.545Z,97764.56
2019-05-12T07:57:11.495Z,97770.35
2019-05-12T07:59:40.776Z,97778.33
2019-05-12T08:02:09.280Z,97787.62
2019-05-12T08:04:41.136Z,97789.42
2019-05-12T08:07:14.532Z,97787.14
2019-05-12T08:09:46.023Z,97800.56
2019-05-12T08:12:20.986Z,97791.16
2019-05-12T08:14:50.666Z,97802.75
2019-05-12T08:17:24.550Z,97809.19
2019-05-12T08:19:55.299Z,97801.91
2019-05-12T08:22:29.287Z,97815.11
2019-05-12T08:24:59.665Z,97813.44
2019-05-12T08:27:31.060Z,97821.70
2019-05-12T08:30:06.213Z,97827.01
2019-05-12T08:32:36.589Z,97823.22
2019-05-12T08:35:08.121Z,97823.81
2019-05-12T08:37:39.528Z,97830.74
2019-05-12T08:40:11.633Z,97836.97
2019-05-12T08:42:43.579Z,97831.48
2019-05-12T08:45:27.374Z,97837.50
2019-05-12T08:47:48.992Z,97847.45
2019-05-12T08:50:23.104Z,97846.13
2019-05-12T08:52:53.888Z,97852.86
2019-05-12T08:55:31.469Z,97853.38
2019-05-12T08:57:58.430Z,97856.38
2019-05-12T09:00:46.394Z,97863.12
2019-05-12T09:03:14.178Z,97860.91
2019-05-12T09:05:46.165Z,97876.55
2019-05-12T09:08:18.025Z,97874.75
2019-05-12T09:10:52.083Z,97879.77
2019-05-12T09:13:23.455Z,97886.35
2019-05-12T09:15:54.732Z,97888.83
2019-05-12T09:18:33.639Z,97886.58
2019-05-12T09:20:59.245Z,97898.70
2019-05-12T09:23:32.695Z,97894.15
2019-05-12T09:26:04.209Z,97908.58
2019-05-12T09:28:46.335Z,97908.78
2019-05-12T09:31:09.033Z,97901.92
2019-05-12T09:33:40.569Z,97913.82
2019-05-12T09:36:19.834Z,97918.27
2019-05-12T09:38:45.083Z,97918.05
2019-05-12T09:41:16.543Z,97926.24
2019-05-12T09:43:50.522Z,97923.16
2019-05-12T09:46:23.335Z,97932.65
2019-05-12T09:48:55.158Z,97936.84
2019-05-12T09:51:26.572Z,97933.26
2019-05-12T09:53:58.240Z,97942.40
2019-05-12T09:56:29.562Z,97946.89
2019-05-12T09:59:02.850Z,97949.83
2019-05-12T10:01:39.452Z,97955.30
2019-05-12T10:04:10.384Z,97959.14
2019-05-12T10:06:44.277Z,97955.08
2019-05-12T10:09:19.601Z,97945.77
2019-05-12T10:11:51.895Z,97948.83
2019-05-12T10:14:23.579Z,97949.12
2019-05-12T10:16:54.644Z,97955.27
2019-05-12T10:19:25.991Z,97961.17
2019-05-12T10:21:59.628Z,97959.40
2019-05-12T10:24:32.690Z,97966.37
2019-05-12T10:27:04.206Z,97965.72
2019-05-12T10:29:36.165Z,97960.86
2019-05-12T10:32:10.307Z,97972.13
2019-05-12T10:34:40.776Z,97973.25
2019-05-12T10:37:13.357Z,97978.00
2019-05-12T10:39:44.877Z,97977.44
2019-05-12T10:42:16.640Z,97985.37
2019-05-12T10:44:54.523Z,97990.00
2019-05-12T10:47:25.186Z,97992.91
2019-05-12T10:49:56.937Z,97994.19
2019-05-12T10:52:29.438Z,97990.52
2019-05-12T10:55:01.526Z,97989.51
2019-05-12T10:57:33.436Z,97990.41
2019-05-12T11:00:06.381Z,97999.55
2019-05-12T11:02:38.509Z,97987.34
2019-05-12T11:05:12.370Z,97997.41
2019-05-12T11:07:43.626Z,97994.34
2019-05-12T11:10:19.898Z,97999.75
2019-05-12T11:12:49.419Z,98011.13
2019-05-12T11:15:20.889Z,98005.09
2019-05-12T11:18:13.053Z,98002.55
2019-05-12T11:20:45.050Z,98000.76
2019-05-12T11:23:16.622Z,98002.52
2019-05-12T11:25:48.600Z,97997.86
2019-05-12T11:28:20.425Z,97994.89
2019-05-12T11:30:51.831Z,98001.97
2019-05-12T11:33:23.881Z,98003.81
2019-05-12T11:35:56.043Z,98001.44
2019-05-12T11:38:27.844Z,98006.83
2019-05-12T11:40:59.306Z,98004.67
2019-05-12T11:43:30.692Z,98009.21
2019-05-12T11:46:02.115Z,98008.07
2019-05-12T11:48:33.931Z,98011.37
2019-05-12T11:51:05.589Z,98019.03
2019-05-12T11:53:37.095Z,98019.67
2019-05-12T11:56:09.723Z,98020.07
2019-05-12T11:58:46.204Z,98022.67
2019-05-12T12:01:15.759Z,98015.42
2019-05-12T12:03:48.041Z,98022.58
2019-05-12T12:06:19.251Z,98022.91
2019-05-12T12:08:50.728Z,98029.86
2019-05-12T12:11:27.562Z,98033.27
2019-05-12T12:14:00.344Z,98043.51
2019-05-12T12:16:28.527Z,98049.36
2019-05-12T12:19:02.713Z,98051.28
2019-05-12T12:21:35.097Z,98060.91
2019-05-12T12:24:06.086Z,98054.94
2019-05-12T12:26:37.488Z,98061.34
2019-05-12T12:29:09.424Z,98066.06
2019-05-12T12:31:49.996Z,98059.56
2019-05-12T12:34:25.096Z,98065.72
2019-05-12T12:36:54.703Z,98071.89
2019-05-12T12:39:26.592Z,98068.69
2019-05-12T12:42:00.343Z,98071.98
2019-05-12T12:44:33.960Z,98074.27
2019-05-12T12:47:04.659Z,98073.78
2019-05-12T12:49:40.022Z,98075.34
2019-05-12T12:52:09.145Z,98076.60
2019-05-12T12:54:40.630Z,98075.15
2019-05-12T12:57:13.606Z,98073.19
2019-05-12T12:59:51.098Z,98069.16
2019-05-12T13:02:19.148Z,98066.78
2019-05-12T13:04:50.658Z,98061.54
2019-05-12T13:07:24.138Z,98069.25
2019-05-12T13:10:07.398Z,98067.98
2019-05-12T13:12:31.739Z,98079.27
2019-05-12T13:15:03.731Z,98075.56
2019-05-12T13:17:40.157Z,98083.02
2019-05-12T13:20:08.253Z,98092.77
2019-05-12T13:22:39.677Z,98092.96
2019-05-12T13:25:14.037Z,98103.84
2019-05-12T13:27:45.100Z,98093.09
2019-05-12T13:30:21.328Z,98097.09
2019-05-12T13:32:51.556Z,98097.07
2019-05-12T13:35:23.793Z,98105.33
2019-05-12T13:38:00.190Z,98107.21
2019-05-12T13:40:29.739Z,98107.84
2019-05-12T13:43:03.897Z,98113.37
2019-05-12T13:45:35.434Z,98106.89
2019-05-12T13:48:09.733Z,98103.58
2019-05-12T13:50:39.999Z,98103.66
2019-05-12T13:53:13.674Z,98097.88
2019-05-12T13:55:49.385Z,98100.83
2019-05-12T13:58:18.173Z,98104.95
2019-05-12T14:01:08.078Z,98096.14
2019-05-12T14:03:23.300Z,98104.08
2019-05-12T14:05:55.219Z,98108.51
2019-05-12T14:08:27.279Z,98107.23
2019-05-12T14:10:59.736Z,98110.23
2019-05-12T14:13:33.659Z,98109.97
2019-05-12T14:16:06.786Z,98108.75
2019-05-12T14:18:37.484Z,98111.94
2019-05-12T14:21:08.942Z,98109.95
2019-05-12T14:23:40.279Z,98102.22
2019-05-12T14:26:13.691Z,98096.77
2019-05-12T14:28:49.331Z,98100.09
2019-05-12T14:31:29.197Z,98100.23
2019-05-12T14:33:51.116Z,98093.52
2019-05-12T14:36:26.693Z,98101.28
2019-05-12T14:39:00.281Z,98096.77
2019-05-12T14:41:30.046Z,98098.77
2019-05-12T14:44:02.045Z,98092.72
2019-05-12T14:46:34.586Z,98099.20
2019-05-12T14:49:06.043Z,98096.70
2019-05-12T14:51:37.374Z,98098.69
2019-05-12T14:54:09.000Z,98101.30
2019-05-12T14:56:47.238Z,98098.41
2019-05-12T14:59:14.430Z,98097.85
2019-05-12T15:01:57.190Z,98094.66
2019-05-12T15:04:27.944Z,98105.28
2019-05-12T15:06:53.465Z,98110.14
2019-05-12T15:09:25.108Z,98115.40
2019-05-12T15:11:56.814Z,98120.73
2019-05-12T15:14:32.839Z,98122.99
2019-05-12T15:17:03.570Z,98127.52
2019-05-12T15:19:35.182Z,98126.99
2019-05-12T15:22:10.283Z,98129.13
2019-05-12T15:24:40.305Z,98128.28
2019-05-12T15:27:13.475Z,98132.25
2019-05-12T15:29:45.001Z,98129.59
2019-05-12T15:32:16.720Z,98130.28
2019-05-12T15:34:48.081Z,98132.84
2019-05-12T15:37:19.467Z,98127.73
2019-05-12T15:39:53.325Z,98125.65
2019-05-12T15:42:24.214Z,98128.30
2019-05-12T15:44:56.536Z,98125.59
2019-05-12T15:47:30.092Z,98126.71
2019-05-12T15:50:00.970Z,98132.16
2019-05-12T15:52:38.282Z,98139.23
2019-05-12T15:55:06.572Z,98137.73
2019-05-12T15:57:37.985Z,98140.50
2019-05-12T16:00:10.165Z,98142.75
2019-05-12T16:02:44.249Z,98148.19
2019-05-12T16:05:20.232Z,98150.70
2019-05-12T16:07:49.671Z,98152.60
2019-05-12T16:10:23.516Z,98154.84
2019-05-12T16:12:54.399Z,98151.53
2019-05-12T16:15:25.784Z,98162.08
2019-05-12T16:17:59.502Z,98156.16
2019-05-12T16:20:30.650Z,98166.45
2019-05-12T16:23:04.059Z,98160.45
2019-05-12T16:25:35.215Z,98165.23
2019-05-12T16:28:07.865Z,98167.80
2019-05-12T16:30:39.685Z,98167.81
2019-05-12T16:33:14.324Z,98163.53
2019-05-12T16:35:44.314Z,98166.24
2019-05-12T16:38:19.773Z,98166.80
2019-05-12T16:40:49.970Z,98165.56
2019-05-12T16:43:23.791Z,98172.80
2019-05-12T16:45:54.874Z,98177.78
2019-05-12T16:48:32.612Z,98180.28
2019-05-12T16:50:59.531Z,98177.20
2019-05-12T16:53:31.344Z,98193.56
2019-05-12T16:56:04.224Z,98189.19
2019-05-12T16:58:35.845Z,98185.97
2019-05-12T17:01:07.235Z,98186.29
2019-05-12T17:03:38.618Z,98195.14
2019-05-12T17:06:10.541Z,98192.78
2019-05-12T17:08:43.850Z,98200.41
2019-05-12T17:11:27.330Z,98200.97
2019-05-12T17:13:56.688Z,98196.81
2019-05-12T17:16:21.340Z,98198.73
2019-05-12T17:18:53.331Z,98199.39
2019-05-12T17:21:25.150Z,98201.94
2019-05-12T17:23:57.219Z,98204.91
2019-05-12T17:26:28.687Z,98211.20
2019-05-12T17:29:01.650Z,98210.23
2019-05-12T17:31:33.803Z,98209.20
2019-05-12T17:34:09.011Z,98216.14
2019-05-12T17:36:39.936Z,98219.37
2019-05-12T17:39:13.668Z,98218.66
2019-05-12T17:41:45.821Z,98224.66
2019-05-12T17:44:17.290Z,98225.37
2019-05-12T17:46:48.787Z,98227.93
2019-05-12T17:49:25.366Z,98236.69
2019-05-12T17:51:53.515Z,98243.21
2019-05-12T17:54:26.535Z,98246.58
2019-05-12T17:56:58.111Z,98248.44
2019-05-12T17:59:29.555Z,98253.30
2019-05-12T18:02:05.612Z,98258.55
2019-05-12T18:04:37.007Z,98261.27
2019-05-12T18:07:13.348Z,98265.02
2019-05-12T18:09:40.296Z,98266.84
2019-05-12T18:12:13.832Z,98270.43
2019-05-12T18:14:51.756Z,98272.28
2019-05-12T18:17:18.500Z,98270.99
2019-05-12T18:19:50.216Z,98275.61
2019-05-12T18:22:24.301Z,98279.52
2019-05-12T18:24:55.789Z,98282.84
2019-05-12T18:27:27.249Z,98292.75
2019-05-12T18:29:58.486Z,98292.66
2019-05-12T18:32:29.922Z,98301.13
2019-05-12T18:35:04.149Z,98297.73
2019-05-12T18:37:34.497Z,98308.13
2019-05-12T18:40:06.852Z,98312.56
2019-05-12T18:42:38.270Z,98315.47
2019-05-12T18:45:12.942Z,98314.38
2019-05-12T18:47:43.921Z,98319.38
2019-05-12T18:50:20.656Z,98326.33
2019-05-12T18:52:49.720Z,98319.48
2019-05-12T18:55:23.347Z,98323.86
2019-05-12T18:57:55.327Z,98324.84
2019-05-12T19:00:27.069Z,98332.42
2019-05-12T19:02:59.608Z,98334.70
2019-05-12T19:05:31.964Z,98337.56
2019-05-12T19:08:03.825Z,98344.55
2019-05-12T19:10:38.645Z,98345.91
2019-05-12T19:13:08.901Z,98353.88
2019-05-12T19:15:40.549Z,98352.29
2019-05-12T19:18:15.575Z,98359.45
2019-05-12T19:20:47.912Z,98361.08
2019-05-12T19:23:18.182Z,98367.08
2019-05-12T19:25:50.541Z,98374.63
2019-05-12T19:28:23.833Z,98374.73
2019-05-12T19:31:00.772Z,98372.05
2019-05-12T19:33:28.277Z,98376.18
2019-05-12T19:36:04.277Z,98381.25
2019-05-12T19:38:34.578Z,98379.20
2019-05-12T19:41:06.045Z,98379.52
2019-05-12T19:43:39.194Z,98378.49
2019-05-12T19:46:10.896Z,98384.23
2019-05-12T19:48:49.071Z,98386.16
2019-05-12T19:51:22.023Z,98387.73
2019-05-12T19:53:49.782Z,98384.64
2019-05-12T19:56:23.612Z,98395.53
2019-05-12T19:58:54.217Z,98386.68
2019-05-12T20:01:32.201Z,98392.98
2019-05-12T20:03:59.010Z,98391.55
2019-05-12T20:06:33.455Z,98391.08
2019-05-12T20:09:08.298Z,98401.59
2019-05-12T20:11:38.343Z,98402.56
2019-05-12T20:14:10.086Z,98401.48
2019-05-12T20:16:43.928Z,98408.28
2019-05-12T20:19:19.904Z,98414.72
2019-05-12T20:21:48.737Z,98415.48
2019-05-12T20:24:20.061Z,98408.06
2019-05-12T20:26:53.701Z,98408.23
2019-05-12T20:29:33.407Z,98410.03
2019-05-12T20:31:57.691Z,98417.42
2019-05-12T20:34:29.046Z,98418.04
2019-05-12T20:37:07.534Z,98415.67
2019-05-12T20:39:33.749Z,98416.28
2019-05-12T20:42:05.527Z,98414.80
2019-05-12T20:44:37.031Z,98417.65
2019-05-12T20:47:08.384Z,98419.70
2019-05-12T20:49:45.082Z,98416.48
2019-05-12T20:52:14.417Z,98420.30
2019-05-12T20:54:49.226Z,98420.06
2019-05-12T20:57:19.458Z,98428.33
2019-05-12T20:59:50.702Z,98421.88
2019-05-12T21:02:23.367Z,98430.37
2019-05-12T21:05:00.850Z,98428.62
2019-05-12T21:07:28.119Z,98429.95
2019-05-12T21:09:59.395Z,98440.77
2019-05-12T21:12:33.286Z,98437.05
2019-05-12T21:15:13.805Z,98439.78
2019-05-12T21:17:42.659Z,98445.38
2019-05-12T21:20:12.624Z,98445.59
2019-05-12T21:22:43.747Z,98449.39
2019-05-12T21:25:15.582Z,98435.67
2019-05-12T21:27:47.966Z,98436.55
2019-05-12T21:30:19.636Z,98437.00
2019-05-12T21:32:56.342Z,98445.19
2019-05-12T21:35:25.986Z,98442.67
2019-05-12T21:37:57.535Z,98442.58
2019-05-12T21:40:30.663Z,98444.17
2019-05-12T21:43:04.152Z,98443.33
2019-05-12T21:45:35.785Z,98448.89
2019-05-12T21:48:07.570Z,98445.66
2019-05-12T21:50:39.906Z,98445.38
2019-05-12T21:53:19.177Z,98449.28
2019-05-12T21:55:44.477Z,98449.28
2019-05-12T21:58:15.866Z,98452.55
2019-05-12T22:01:00.042Z,98451.55
2019-05-12T22:03:27.892Z,98453.52
2019-05-12T22:06:06.899Z,98456.28
2019-05-12T22:08:33.823Z,98460.61
2019-05-12T22:11:11.245Z,98462.26
2019-05-12T22:13:47.196Z,98458.93
2019-05-12T22:16:14.244Z,98454.99
2019-05-12T22:18:47.878Z,98462.70
2019-05-12T22:21:19.845Z,98453.70
2019-05-12T22:23:53.662Z,98460.47
2019-05-12T22:26:25.104Z,98464.05
2019-05-12T22:28:56.930Z,98462.85
2019-05-12T22:31:28.240Z,98464.78
2019-05-12T22:33:59.621Z,98461.45
2019-05-12T22:36:31.067Z,98457.07
2019-05-12T22:39:04.973Z,98460.09
2019-05-12T22:41:41.280Z,98456.23
2019-05-12T22:44:09.588Z,98454.63
2019-05-12T22:46:40.882Z,98452.45
2019-05-12T22:49:16.728Z,98458.16
2019-05-12T22:51:46.536Z,98453.78
2019-05-12T22:54:18.568Z,98457.59
2019-05-12T22:56:55.176Z,98460.45
2019-05-12T22:59:24.142Z,98458.24
2019-05-12T23:01:55.683Z,98458.08
2019-05-12T23:04:35.589Z,98460.38
2019-05-12T23:07:00.352Z,98456.40
2019-05-12T23:09:33.891Z,98460.09
2019-05-12T23:12:09.755Z,98459.09
2019-05-12T23:14:38.413Z,98454.06
2019-05-12T23:17:09.868Z,98462.27
2019-05-12T23:19:45.368Z,98466.53
2019-05-12T23:22:14.991Z,98461.09
2019-05-12T23:24:46.797Z,98459.33
2019-05-12T23:27:18.922Z,98465.20
2019-05-12T23:29:53.321Z,98462.27
2019-05-12T23:32:24.757Z,98469.63
2019-05-12T23:34:58.587Z,98459.09
2019-05-12T23:37:30.265Z,98464.34
2019-05-12T23:40:04.350Z,98460.17
2019-05-12T23:42:35.664Z,98457.91
2019-05-12T23:45:07.437Z,98458.11
2019-05-12T23:47:38.862Z,98453.52
2019-05-12T23:50:10.724Z,98454.00
2019-05-12T23:52:44.015Z,98456.94
2019-05-12T23:55:15.340Z,98457.19
2019-05-12T23:57:46.972Z,98457.34
